Time;durP1;ratioP1;P1;durP2;ratioP2;P2;SDS_P1;SDS_P2;PMS_P1;PMS_P2;Temp;Humidity;BMP_temperature;BMP_pressure;BME280_temperature;BME280_humidity;BME280_pressure;Samples;Min_cycle;Max_cycle;Signal;HPM_P1;HPM_P2
2023/01/20 00:01:48;;;;;;;11.77;3.92;;;19.90;37.00;;;;;;5110490;28;20471;-63
2023/01/20 00:04:17;;;;;;;10.32;3.45;;;19.80;36.90;;;;;;5108393;28;20419;-61
2023/01/20 00:06:44;;;;;;;17.13;3.00;;;19.70;37.30;;;;;;5110678;28;21904;-61
2023/01/20 00:09:15;;;;;;;17.48;3.95;;;19.60;37.40;;;;;;5108138;28;20738;-60
2023/01/20 00:11:41;;;;;;;20.77;3.63;;;19.50;38.00;;;;;;5109974;28;20072;-61
2023/01/20 00:14:09;;;;;;;18.65;3.30;;;19.40;38.30;;;;;;5111609;28;20172;-61
2023/01/20 00:16:36;;;;;;;8.77;2.83;;;19.30;38.40;;;;;;5110794;27;20148;-61
2023/01/20 00:19:03;;;;;;;12.73;3.47;;;19.20;39.50;;;;;;5110653;27;20149;-61
2023/01/20 00:21:29;;;;;;;14.88;4.00;;;19.30;39.00;;;;;;5109229;28;20074;-61
2023/01/20 00:23:56;;;;;;;11.57;3.40;;;19.20;39.10;;;;;;5109215;28;20068;-62
2023/01/20 00:26:24;;;;;;;14.05;4.38;;;19.30;39.10;;;;;;5109787;28;20064;-60
2023/01/20 00:28:54;;;;;;;10.70;3.25;;;19.20;39.20;;;;;;5109708;28;20566;-62
2023/01/20 00:31:23;;;;;;;15.98;3.80;;;19.00;39.20;;;;;;5108807;28;20074;-62
2023/01/20 00:33:51;;;;;;;17.98;4.07;;;18.80;39.80;;;;;;5109302;28;20071;-60
2023/01/20 00:36:19;;;;;;;14.20;3.70;;;18.70;40.50;;;;;;5091415;28;20068;-62
2023/01/20 00:38:46;;;;;;;15.40;3.72;;;18.60;40.90;;;;;;5110089;28;20477;-61
2023/01/20 00:41:14;;;;;;;20.10;3.95;;;18.50;40.60;;;;;;5109298;28;20070;-60
2023/01/20 00:43:41;;;;;;;16.23;3.92;;;18.40;41.10;;;;;;5109723;27;20075;-62
2023/01/20 00:46:08;;;;;;;17.25;4.28;;;18.30;41.00;;;;;;5108664;28;20060;-60
2023/01/20 00:48:35;;;;;;;21.13;5.22;;;18.20;42.10;;;;;;5108875;28;20564;-61
2023/01/20 00:51:02;;;;;;;17.45;4.65;;;18.10;41.40;;;;;;5110273;28;20114;-60
2023/01/20 00:53:29;;;;;;;16.95;3.80;;;18.00;41.80;;;;;;5109279;28;20179;-62
2023/01/20 00:55:55;;;;;;;22.17;4.00;;;17.90;42.20;;;;;;5109620;28;20076;-62
2023/01/20 00:58:22;;;;;;;13.48;3.70;;;17.80;42.40;;;;;;5108285;28;20088;-61
2023/01/20 01:00:49;;;;;;;16.48;3.50;;;17.70;42.20;;;;;;5111588;27;20573;-59
2023/01/20 01:03:16;;;;;;;8.65;3.50;;;17.70;42.80;;;;;;5108761;28;20147;-60
2023/01/20 01:05:43;;;;;;;16.55;4.40;;;17.50;44.30;;;;;;5114375;27;20078;-61
2023/01/20 01:08:10;;;;;;;13.82;4.22;;;17.40;45.00;;;;;;5093420;28;20124;-61
2023/01/20 01:10:37;;;;;;;13.15;4.00;;;17.20;44.80;;;;;;5107321;28;20509;-60
2023/01/20 01:13:04;;;;;;;17.75;3.10;;;17.10;45.90;;;;;;5092008;28;20530;-59
2023/01/20 01:15:31;;;;;;;22.95;3.88;;;17.00;45.30;;;;;;5107985;28;20111;-60
2023/01/20 01:17:58;;;;;;;25.30;4.30;;;16.80;45.20;;;;;;5112972;27;20084;-61
2023/01/20 01:20:26;;;;;;;22.20;4.35;;;16.80;46.00;;;;;;5109050;28;20533;-62
2023/01/20 01:22:52;;;;;;;16.45;4.65;;;16.60;46.00;;;;;;5090435;28;20073;-61
2023/01/20 01:25:19;;;;;;;20.77;5.28;;;16.50;46.40;;;;;;5109916;28;20062;-62
2023/01/20 01:27:45;;;;;;;34.25;7.00;;;16.40;46.70;;;;;;5110198;27;20454;-62
2023/01/20 01:30:12;;;;;;;26.95;8.15;;;16.30;47.00;;;;;;5109301;28;20484;-61
2023/01/20 01:32:39;;;;;;;25.00;6.38;;;16.30;48.30;;;;;;5109017;27;20073;-61
2023/01/20 01:35:05;;;;;;;27.40;6.85;;;16.20;47.90;;;;;;5091886;28;20073;-62
2023/01/20 01:37:32;;;;;;;23.05;6.43;;;16.10;48.10;;;;;;5107690;28;20550;-61
2023/01/20 01:39:58;;;;;;;21.33;5.68;;;16.00;48.70;;;;;;5108757;28;20201;-62
2023/01/20 01:42:26;;;;;;;27.75;6.55;;;15.90;49.70;;;;;;5108193;28;20202;-61
2023/01/20 01:45:10;;;;;;;41.08;6.43;;;15.90;49.10;;;;;;5115035;28;20087;-61
2023/01/20 01:47:41;;;;;;;27.95;8.75;;;15.70;49.70;;;;;;5106488;28;20090;-60
2023/01/20 01:50:12;;;;;;;44.20;9.05;;;15.70;49.50;;;;;;5108848;28;20094;-62
2023/01/20 01:52:41;;;;;;;36.33;8.07;;;15.60;49.50;;;;;;5091051;28;20081;-60
2023/01/20 01:55:08;;;;;;;47.80;8.32;;;15.50;49.90;;;;;;5107997;28;20148;-60
2023/01/20 01:57:35;;;;;;;43.80;8.75;;;15.30;50.80;;;;;;5108436;28;20090;-62
2023/01/20 02:00:03;;;;;;;18.17;3.80;;;15.30;50.50;;;;;;5110835;28;20068;-60
2023/01/20 02:02:30;;;;;;;13.65;4.63;;;15.60;50.00;;;;;;5104047;28;20067;-62
2023/01/20 02:04:56;;;;;;;23.50;4.20;;;15.80;49.70;;;;;;5108605;28;20156;-64
2023/01/20 02:07:22;;;;;;;21.27;5.70;;;15.90;49.90;;;;;;5110189;28;20079;-63
2023/01/20 02:09:49;;;;;;;18.50;4.68;;;16.10;49.50;;;;;;5109518;28;20693;-65
2023/01/20 02:12:19;;;;;;;23.52;4.93;;;16.00;49.70;;;;;;5112796;28;20085;-65
2023/01/20 02:14:49;;;;;;;19.70;3.78;;;16.10;50.10;;;;;;5110453;28;20325;-63
2023/01/20 02:17:29;;;;;;;19.00;3.40;;;16.00;50.50;;;;;;5110576;28;20094;-67
2023/01/20 02:20:25;;;;;;;15.60;3.05;;;16.10;51.30;;;;;;5110254;28;20072;-66
2023/01/20 02:22:57;;;;;;;18.95;3.03;;;16.10;51.60;;;;;;5114907;28;20065;-65
2023/01/20 02:25:54;;;;;;;22.50;2.80;;;16.10;52.20;;;;;;5113012;28;21689;-64
2023/01/20 02:28:39;;;;;;;11.60;2.43;;;16.10;52.90;;;;;;5115863;27;20420;-65
2023/01/20 02:31:42;;;;;;;16.48;2.30;;;16.20;53.30;;;;;;5114514;27;21442;-66
2023/01/20 02:34:29;;;;;;;21.67;8.40;;;16.20;54.10;;;;;;5093307;28;20066;-68
2023/01/20 02:36:58;;;;;;;62.92;36.45;;;16.10;54.50;;;;;;5119734;27;20518;-67
2023/01/20 02:39:49;;;;;;;37.35;11.38;;;16.20;54.80;;;;;;5117964;27;20545;-68
2023/01/20 02:42:48;;;;;;;20.85;2.08;;;16.20;55.10;;;;;;5093085;28;20161;-65
2023/01/20 02:45:19;;;;;;;9.18;1.77;;;16.20;55.40;;;;;;5118467;27;20071;-65
2023/01/20 02:47:55;;;;;;;11.98;2.42;;;16.10;55.70;;;;;;5093528;28;20093;-66
2023/01/20 02:50:54;;;;;;;13.05;2.47;;;16.10;56.20;;;;;;5113487;27;20081;-67
2023/01/20 02:53:23;;;;;;;16.83;2.20;;;16.10;56.60;;;;;;5042048;28;20131;-63
2023/01/20 02:55:53;;;;;;;14.73;2.28;;;16.00;57.10;;;;;;5114830;27;20081;-63
2023/01/20 02:58:32;;;;;;;18.88;5.18;;;15.90;57.30;;;;;;5116352;27;20131;-63
2023/01/20 03:01:08;;;;;;;20.55;8.02;;;15.90;57.70;;;;;;5113928;27;20140;-62
2023/01/20 03:03:37;;;;;;;21.02;5.18;;;15.80;58.10;;;;;;5112898;27;20065;-64
2023/01/20 03:06:09;;;;;;;22.17;9.52;;;15.80;58.40;;;;;;5113428;27;20180;-63
2023/01/20 03:08:39;;;;;;;21.58;5.47;;;15.80;58.70;;;;;;5113136;27;20595;-62
2023/01/20 03:11:08;;;;;;;16.63;3.95;;;15.70;58.90;;;;;;5125380;27;20085;-62
2023/01/20 03:13:37;;;;;;;17.38;4.25;;;15.70;59.10;;;;;;5117845;27;20496;-63
2023/01/20 03:16:23;;;;;;;11.07;3.50;;;15.60;59.70;;;;;;5116084;27;20129;-62
2023/01/20 03:18:51;;;;;;;17.73;3.50;;;15.60;59.90;;;;;;5112130;27;20554;-65
2023/01/20 03:21:18;;;;;;;16.08;2.65;;;15.50;60.20;;;;;;5118637;27;20074;-63
2023/01/20 03:23:55;;;;;;;9.43;3.08;;;15.50;60.90;;;;;;5114652;27;20061;-64
2023/01/20 03:26:22;;;;;;;9.48;2.60;;;15.50;61.40;;;;;;5118435;27;20069;-64
2023/01/20 03:28:49;;;;;;;17.33;3.03;;;15.50;62.20;;;;;;5115863;27;20539;-64
2023/01/20 03:31:29;;;;;;;9.20;2.55;;;15.50;62.90;;;;;;5116179;27;20077;-63
2023/01/20 03:33:59;;;;;;;11.55;2.42;;;15.40;63.40;;;;;;5114144;27;20576;-63
2023/01/20 03:36:28;;;;;;;9.68;3.38;;;15.40;63.60;;;;;;5118248;27;20523;-65
2023/01/20 03:38:57;;;;;;;10.85;2.22;;;15.40;63.80;;;;;;5115992;27;20169;-65
2023/01/20 03:41:33;;;;;;;13.32;2.80;;;15.40;63.90;;;;;;5120429;27;20531;-62
2023/01/20 03:44:10;;;;;;;13.80;3.72;;;15.40;64.10;;;;;;5115708;27;20076;-64
2023/01/20 03:46:47;;;;;;;12.20;3.72;;;15.30;64.40;;;;;;5111067;27;20076;-64
2023/01/20 03:49:42;;;;;;;21.10;5.43;;;15.30;64.70;;;;;;5112916;27;20065;-63
2023/01/20 03:52:36;;;;;;;13.00;3.40;;;15.20;65.30;;;;;;5113966;27;20077;-64
2023/01/20 03:55:14;;;;;;;12.38;3.45;;;15.20;66.60;;;;;;5081781;27;20076;-64
2023/01/20 03:57:58;;;;;;;9.05;2.20;;;15.20;67.60;;;;;;5116372;27;20085;-66
2023/01/20 04:00:26;;;;;;;12.98;2.65;;;15.20;68.50;;;;;;5118069;27;20065;-66
2023/01/20 04:02:54;;;;;;;8.75;2.45;;;15.10;68.80;;;;;;5114148;27;20135;-63
2023/01/20 04:05:21;;;;;;;8.77;3.10;;;15.10;69.20;;;;;;5115509;27;20090;-62
2023/01/20 04:07:48;;;;;;;9.57;2.17;;;15.10;69.80;;;;;;5113744;27;20063;-63
2023/01/20 04:10:16;;;;;;;11.02;2.20;;;15.00;70.20;;;;;;5113575;27;20118;-65
2023/01/20 04:12:42;;;;;;;11.05;1.70;;;15.00;70.50;;;;;;5114986;27;20141;-64
2023/01/20 04:15:09;;;;;;;;;;;15.00;71.30;;;;;;5113647;27;20106;-63
2023/01/20 04:17:38;;;;;;;6.47;1.90;;;15.00;71.80;;;;;;5114569;27;19974;-64
2023/01/20 04:20:09;;;;;;;12.07;2.10;;;15.00;72.50;;;;;;5075613;28;20097;-66
2023/01/20 04:22:58;;;;;;;12.88;2.55;;;15.00;73.00;;;;;;5092944;28;20091;-64
2023/01/20 04:25:29;;;;;;;13.90;2.30;;;15.00;73.50;;;;;;5111097;27;20113;-65
2023/01/20 04:27:56;;;;;;;5.82;1.98;;;14.90;74.10;;;;;;5112960;27;20078;-65
2023/01/20 04:30:23;;;;;;;10.95;2.30;;;14.90;74.30;;;;;;5110560;27;20078;-66
2023/01/20 04:32:49;;;;;;;8.35;2.00;;;14.90;74.50;;;;;;5114756;27;20090;-65
2023/01/20 04:35:17;;;;;;;;;;;15.00;74.80;;;;;;5091574;28;20155;-66
2023/01/20 04:37:44;;;;;;;;;;;15.20;74.40;;;;;;5108231;28;19970;-64
2023/01/20 04:40:12;;;;;;;14.27;1.83;;;15.20;74.20;;;;;;5115450;27;19977;-63
2023/01/20 04:42:39;;;;;;;13.07;2.25;;;15.30;74.40;;;;;;5117306;27;20077;-61
2023/01/20 04:45:06;;;;;;;14.95;2.17;;;15.30;74.20;;;;;;5111880;27;20564;-63
2023/01/20 04:47:33;;;;;;;8.63;2.92;;;15.30;74.40;;;;;;5113477;27;20555;-64
2023/01/20 04:49:59;;;;;;;8.75;2.75;;;15.20;74.60;;;;;;5119070;27;20066;-64
2023/01/20 04:52:26;;;;;;;10.68;2.58;;;15.30;74.60;;;;;;5115730;27;20085;-65
2023/01/20 04:54:52;;;;;;;10.60;2.80;;;15.30;74.80;;;;;;5111350;27;20066;-63
2023/01/20 04:57:19;;;;;;;16.77;2.63;;;15.30;74.70;;;;;;5092008;28;20251;-63
2023/01/20 04:59:45;;;;;;;5.75;1.80;;;15.30;74.80;;;;;;5113621;27;20058;-63
2023/01/20 05:02:11;;;;;;;;;;;15.20;75.10;;;;;;5115434;27;20116;-64
2023/01/20 05:04:37;;;;;;;6.75;1.50;;;15.20;75.10;;;;;;5110521;28;19982;-62
2023/01/20 05:07:03;;;;;;;;;;;15.20;75.20;;;;;;5109655;28;20077;-64
2023/01/20 05:09:30;;;;;;;11.70;2.05;;;15.30;75.10;;;;;;5111929;27;20036;-64
2023/01/20 05:11:56;;;;;;;;;;;15.20;75.30;;;;;;5114064;27;20082;-67
2023/01/20 05:14:22;;;;;;;13.27;2.20;;;15.10;75.30;;;;;;5106783;28;20011;-62
2023/01/20 05:16:48;;;;;;;;;;;15.10;75.50;;;;;;5108390;28;20065;-64
2023/01/20 05:19:30;;;;;;;6.20;1.60;;;15.20;75.50;;;;;;5065322;28;19966;-66
2023/01/20 05:21:58;;;;;;;9.18;1.48;;;15.20;75.30;;;;;;5110974;28;20101;-63
2023/01/20 05:24:24;;;;;;;10.18;1.58;;;15.20;75.30;;;;;;5107710;28;20168;-65
2023/01/20 05:26:51;;;;;;;3.17;1.20;;;15.30;75.10;;;;;;5113547;27;20069;-63
2023/01/20 05:29:17;;;;;;;;;;;15.30;75.00;;;;;;5107818;28;20065;-63
2023/01/20 05:31:43;;;;;;;6.78;1.52;;;15.30;75.10;;;;;;5107071;28;19991;-65
2023/01/20 05:34:10;;;;;;;;;;;15.30;75.10;;;;;;5109267;28;20544;-65
2023/01/20 05:36:36;;;;;;;14.23;1.43;;;15.20;75.00;;;;;;5108631;28;20007;-63
2023/01/20 05:39:02;;;;;;;;;;;15.30;75.10;;;;;;5107394;28;20116;-64
2023/01/20 05:41:29;;;;;;;4.10;1.02;;;15.20;75.30;;;;;;5106810;28;19956;-65
2023/01/20 05:43:55;;;;;;;6.35;1.73;;;15.30;75.30;;;;;;5105860;28;20074;-64
2023/01/20 05:46:22;;;;;;;3.75;1.80;;;15.30;75.20;;;;;;5105078;28;20073;-65
2023/01/20 05:48:48;;;;;;;6.65;1.20;;;15.30;75.20;;;;;;5106694;28;20076;-66
2023/01/20 05:51:15;;;;;;;6.22;1.15;;;15.30;75.40;;;;;;5109189;28;20538;-65
2023/01/20 05:53:41;;;;;;;;;;;15.30;75.50;;;;;;5108375;28;20081;-65
2023/01/20 05:56:07;;;;;;;2.08;0.93;;;15.20;75.60;;;;;;5107778;28;20024;-64
2023/01/20 05:58:34;;;;;;;7.05;1.23;;;15.30;75.70;;;;;;5115674;28;20081;-65
2023/01/20 06:01:18;;;;;;;;;;;15.20;75.30;;;;;;5108596;28;20524;-65
2023/01/20 06:03:44;;;;;;;5.57;1.50;;;15.20;75.40;;;;;;5112232;28;19954;-65
2023/01/20 06:06:14;;;;;;;;;;;15.20;75.60;;;;;;5110505;28;20496;-66
2023/01/20 06:08:41;;;;;;;5.72;1.77;;;15.20;76.00;;;;;;5113791;27;19956;-69
2023/01/20 06:11:07;;;;;;;10.43;2.40;;;15.20;76.10;;;;;;5119177;27;20076;-65
2023/01/20 06:13:38;;;;;;;;;;;15.20;76.20;;;;;;5111394;28;20178;-64
2023/01/20 06:16:05;;;;;;;4.25;1.67;;;15.20;76.20;;;;;;5111566;28;19976;-65
2023/01/20 06:18:33;;;;;;;8.32;1.60;;;15.20;76.10;;;;;;5112982;28;20096;-66
2023/01/20 06:20:59;;;;;;;6.40;1.63;;;15.30;76.20;;;;;;5110354;28;20060;-66
2023/01/20 06:23:26;;;;;;;5.88;1.40;;;15.30;76.30;;;;;;5111382;28;20061;-65
2023/01/20 06:26:07;;;;;;;7.00;1.83;;;15.20;76.50;;;;;;5109808;28;20064;-64
2023/01/20 06:28:34;;;;;;;7.63;2.63;;;15.20;76.80;;;;;;5075451;28;20077;-66
2023/01/20 06:31:10;;;;;;;11.00;2.03;;;15.30;76.90;;;;;;5111210;28;20075;-64
2023/01/20 06:33:36;;;;;;;15.93;6.65;;;15.30;76.70;;;;;;5090633;28;20743;-65
2023/01/20 06:36:04;;;;;;;13.07;4.07;;;15.30;76.80;;;;;;5112183;28;20092;-65
2023/01/20 06:38:33;;;;;;;3.03;2.00;;;15.30;77.00;;;;;;5111307;28;20089;-64
2023/01/20 06:41:02;;;;;;;11.80;1.33;;;15.30;77.10;;;;;;5112017;28;20159;-65
2023/01/20 06:43:29;;;;;;;4.20;1.02;;;15.30;77.00;;;;;;5112511;28;20065;-66
2023/01/20 06:46:04;;;;;;;4.43;0.98;;;15.30;77.10;;;;;;5111824;28;20582;-66
2023/01/20 06:48:31;;;;;;;3.55;1.27;;;15.30;77.10;;;;;;5112409;27;20088;-64
2023/01/20 06:51:05;;;;;;;7.47;1.17;;;15.30;77.30;;;;;;5111126;28;20062;-66
2023/01/20 06:53:32;;;;;;;6.28;1.58;;;15.30;77.40;;;;;;5112569;28;20132;-66
2023/01/20 06:56:00;;;;;;;4.55;2.08;;;15.30;77.70;;;;;;5111701;28;20069;-65
2023/01/20 06:58:29;;;;;;;4.75;1.60;;;15.40;77.80;;;;;;5111071;28;20065;-65
2023/01/20 07:00:56;;;;;;;3.50;1.05;;;15.40;77.80;;;;;;5118702;27;20095;-64
2023/01/20 07:03:23;;;;;;;5.05;1.20;;;15.50;77.50;;;;;;5112862;27;20085;-66
2023/01/20 07:06:37;;;;;;;3.22;0.95;;;15.50;77.10;;;;;;5113108;28;20063;-64
2023/01/20 07:09:06;;;;;;;2.45;0.75;;;15.60;77.20;;;;;;5106496;28;20085;-66
2023/01/20 07:11:36;;;;;;;3.92;0.73;;;15.60;78.00;;;;;;5111705;28;20063;-64
2023/01/20 07:14:04;;;;;;;1.52;0.50;;;15.60;78.40;;;;;;5111237;28;20066;-65
2023/01/20 07:16:31;;;;;;;2.70;0.50;;;15.50;80.50;;;;;;5110076;28;20560;-66
2023/01/20 07:18:58;;;;;;;1.17;0.50;;;15.50;81.10;;;;;;5091957;28;20146;-67
2023/01/20 07:21:24;;;;;;;2.00;0.77;;;15.50;81.10;;;;;;5110911;28;20076;-64
2023/01/20 07:23:51;;;;;;;2.47;0.40;;;15.60;81.10;;;;;;5111833;28;20153;-67
2023/01/20 07:26:20;;;;;;;2.28;0.70;;;15.60;81.20;;;;;;5107663;28;20574;-63
2023/01/20 07:28:47;;;;;;;2.67;0.73;;;15.50;81.40;;;;;;5110331;28;20137;-66
2023/01/20 07:31:19;;;;;;;1.60;0.93;;;15.50;81.80;;;;;;5110711;28;20129;-64
2023/01/20 07:33:46;;;;;;;2.72;1.20;;;15.50;82.50;;;;;;5114779;27;20488;-64
2023/01/20 07:36:14;;;;;;;1.90;0.52;;;15.60;81.80;;;;;;5111069;28;20065;-64
2023/01/20 07:38:40;;;;;;;3.30;0.77;;;15.50;82.10;;;;;;5110547;28;20487;-65
2023/01/20 07:41:14;;;;;;;1.80;0.60;;;15.50;82.60;;;;;;5106178;28;20066;-67
2023/01/20 07:43:41;;;;;;;0.70;0.63;;;15.30;83.30;;;;;;5109525;28;20167;-65
2023/01/20 07:46:08;;;;;;;0.50;0.50;;;15.20;83.80;;;;;;5108893;27;20518;-64
2023/01/20 07:48:35;;;;;;;1.80;0.60;;;15.20;84.10;;;;;;5109374;27;20088;-64
2023/01/20 07:51:04;;;;;;;;;;;15.10;84.60;;;;;;5107959;28;20100;-65
2023/01/20 07:53:32;;;;;;;1.58;0.90;;;15.10;85.00;;;;;;5108725;28;19992;-65
2023/01/20 07:56:04;;;;;;;1.05;0.60;;;15.00;85.50;;;;;;5107717;28;20206;-64
2023/01/20 07:58:31;;;;;;;0.50;0.50;;;15.00;85.90;;;;;;5108612;28;20085;-64
2023/01/20 08:01:04;;;;;;;1.17;0.75;;;14.90;86.10;;;;;;5108881;28;20060;-65
2023/01/20 08:03:31;;;;;;;2.70;0.80;;;14.80;86.80;;;;;;5108563;28;20058;-64
2023/01/20 08:05:57;;;;;;;15.38;7.70;;;14.80;87.00;;;;;;5105846;28;20246;-64
2023/01/20 08:08:23;;;;;;;;;;;14.80;87.00;;;;;;5106277;28;20065;-64
2023/01/20 08:10:57;;;;;;;21.17;7.82;;;14.70;87.00;;;;;;5106480;28;19987;-64
2023/01/20 08:13:23;;;;;;;15.00;7.63;;;14.70;86.80;;;;;;5105158;28;20222;-65
2023/01/20 08:15:50;;;;;;;17.60;8.90;;;14.70;86.30;;;;;;5108815;27;20111;-66
2023/01/20 08:18:16;;;;;;;20.98;11.32;;;14.60;86.30;;;;;;5107689;28;20096;-64
2023/01/20 08:20:42;;;;;;;;;;;14.60;86.60;;;;;;5109841;28;20675;-65
2023/01/20 08:23:09;;;;;;;19.02;9.98;;;14.50;86.70;;;;;;5107965;28;20367;-66
2023/01/20 08:25:35;;;;;;;;;;;14.50;86.80;;;;;;5108394;28;20073;-64
2023/01/20 08:28:01;;;;;;;1.13;0.82;;;14.40;86.70;;;;;;5109336;28;19977;-65
2023/01/20 08:30:27;;;;;;;;;;;14.40;86.10;;;;;;5107669;28;20747;-64
2023/01/20 08:32:54;;;;;;;9.27;6.00;;;14.30;85.50;;;;;;5108932;28;19961;-64
2023/01/20 08:35:20;;;;;;;3.80;3.50;;;14.20;84.00;;;;;;5108284;28;20141;-66
2023/01/20 08:37:46;;;;;;;;;;;14.20;83.10;;;;;;5107479;28;20159;-67
2023/01/20 08:40:13;;;;;;;3.92;1.70;;;14.20;83.10;;;;;;5108359;28;20017;-64
2023/01/20 08:42:40;;;;;;;3.35;1.35;;;14.10;82.40;;;;;;5106868;28;20057;-66
2023/01/20 08:45:07;;;;;;;3.38;1.48;;;14.10;82.10;;;;;;5107291;28;20081;-64
2023/01/20 08:47:38;;;;;;;2.53;1.65;;;14.10;81.40;;;;;;5108029;28;20184;-64
2023/01/20 08:50:06;;;;;;;2.92;1.70;;;14.10;80.60;;;;;;5108173;28;20110;-66
2023/01/20 08:52:33;;;;;;;2.03;1.50;;;14.00;80.10;;;;;;5108679;27;20086;-65
2023/01/20 08:54:59;;;;;;;;;;;14.00;79.50;;;;;;5108708;28;20162;-65
2023/01/20 08:57:26;;;;;;;2.80;1.65;;;13.90;77.80;;;;;;5108701;28;20076;-63
2023/01/20 08:59:53;;;;;;;1.88;1.50;;;13.90;77.00;;;;;;5108699;28;20078;-65
2023/01/20 09:02:19;;;;;;;4.45;1.50;;;13.80;76.00;;;;;;5107341;28;20066;-67
2023/01/20 09:04:48;;;;;;;2.90;1.42;;;13.90;75.30;;;;;;5091421;27;20069;-65
2023/01/20 09:07:15;;;;;;;2.58;1.60;;;13.80;75.00;;;;;;5092647;27;20076;-63
2023/01/20 09:09:42;;;;;;;3.10;1.23;;;13.90;75.00;;;;;;5110503;28;20074;-65
2023/01/20 09:12:09;;;;;;;2.60;1.23;;;13.90;75.60;;;;;;5107685;28;20145;-62
2023/01/20 09:14:36;;;;;;;2.88;1.73;;;13.90;74.70;;;;;;5109137;28;20141;-65
2023/01/20 09:17:02;;;;;;;;;;;13.80;74.50;;;;;;5107307;28;20104;-65
2023/01/20 09:19:31;;;;;;;1.92;1.58;;;13.80;74.50;;;;;;5106480;28;20017;-63
2023/01/20 09:21:57;;;;;;;2.88;1.75;;;13.80;73.90;;;;;;5106444;28;20074;-63
2023/01/20 09:24:23;;;;;;;;;;;13.80;73.90;;;;;;5107649;28;20067;-67
2023/01/20 09:26:51;;;;;;;3.80;1.38;;;13.80;73.60;;;;;;5108088;28;19975;-64
2023/01/20 09:29:19;;;;;;;3.15;1.40;;;13.80;73.10;;;;;;5108683;27;20198;-63
2023/01/20 09:31:49;;;;;;;2.28;1.20;;;13.80;73.50;;;;;;5109049;28;20091;-64
2023/01/20 09:34:23;;;;;;;3.95;1.10;;;13.80;73.30;;;;;;5108663;28;20450;-66
2023/01/20 09:36:57;;;;;;;4.47;1.33;;;13.80;71.90;;;;;;5108383;28;20070;-65
2023/01/20 09:45:23;;;;;;;1.83;1.10;;;13.80;69.60;;;;;;5108003;28;20105;-65
2023/01/20 09:47:53;;;;;;;1.83;1.23;;;13.70;70.40;;;;;;5106987;28;20096;-63
2023/01/20 09:53:58;;;;;;;5.25;1.40;;;13.70;71.40;;;;;;5049556;28;20089;-65
2023/01/20 09:56:27;;;;;;;2.28;1.58;;;13.70;71.50;;;;;;5054197;28;20077;-65
2023/01/20 09:59:03;;;;;;;3.00;1.33;;;13.70;72.10;;;;;;5050186;28;20087;-64
2023/01/20 10:01:38;;;;;;;2.53;1.42;;;13.60;72.40;;;;;;5047826;28;21276;-65
2023/01/20 10:04:13;;;;;;;4.38;1.67;;;13.60;72.40;;;;;;5050496;28;20078;-64
2023/01/20 10:06:56;;;;;;;1.50;1.33;;;13.60;72.30;;;;;;5052531;28;20071;-63
2023/01/20 10:09:35;;;;;;;2.22;1.70;;;13.60;71.80;;;;;;5051508;28;20616;-64
2023/01/20 10:12:11;;;;;;;2.55;1.10;;;13.70;71.40;;;;;;5052065;28;20095;-64
2023/01/20 10:15:00;;;;;;;4.25;1.50;;;13.70;70.90;;;;;;5050593;28;20103;-66
2023/01/20 10:17:55;;;;;;;2.92;1.40;;;13.70;71.20;;;;;;5025084;28;20157;-66
2023/01/20 10:20:24;;;;;;;3.55;1.48;;;13.60;70.70;;;;;;5030877;28;20090;-64
2023/01/20 10:23:23;;;;;;;4.00;1.10;;;13.60;70.70;;;;;;5048760;28;20072;-65
2023/01/20 10:25:52;;;;;;;2.67;1.05;;;13.60;70.60;;;;;;5044844;28;20103;-63
2023/01/20 10:28:28;;;;;;;2.38;1.10;;;13.60;68.90;;;;;;5101322;28;20074;-66
2023/01/20 10:31:00;;;;;;;1.40;0.70;;;13.70;68.70;;;;;;5111174;28;20100;-66
2023/01/20 10:33:39;;;;;;;2.00;0.80;;;13.80;68.10;;;;;;5109833;28;20115;-64
2023/01/20 10:36:18;;;;;;;1.38;1.00;;;13.80;68.20;;;;;;5089564;28;20116;-65
2023/01/20 10:39:00;;;;;;;2.25;0.80;;;13.80;68.30;;;;;;5108789;28;20093;-62
2023/01/20 10:41:49;;;;;;;0.80;0.68;;;13.80;68.50;;;;;;5108154;28;20088;-64
2023/01/20 10:44:16;;;;;;;1.90;1.00;;;13.80;68.10;;;;;;5108810;28;20153;-64
2023/01/20 10:47:07;;;;;;;2.90;1.00;;;13.80;68.20;;;;;;5089478;28;20090;-64
2023/01/20 10:49:53;;;;;;;1.70;0.82;;;13.70;68.80;;;;;;5112395;27;20608;-64
2023/01/20 10:52:51;;;;;;;1.52;0.95;;;13.80;69.10;;;;;;5112240;28;20070;-63
2023/01/20 10:55:17;;;;;;;2.55;1.20;;;13.80;68.90;;;;;;5110771;27;20500;-64
2023/01/20 10:57:49;;;;;;;3.28;1.00;;;13.70;69.40;;;;;;5112260;28;20594;-63
2023/01/20 11:00:29;;;;;;;6.30;1.45;;;13.70;69.90;;;;;;5112783;27;20619;-65
2023/01/20 11:02:58;;;;;;;2.88;1.45;;;13.70;70.20;;;;;;5111993;27;20070;-63
2023/01/20 11:05:28;;;;;;;1.80;1.17;;;13.70;70.80;;;;;;5110981;27;20126;-63
2023/01/20 11:07:57;;;;;;;2.40;1.50;;;13.50;71.40;;;;;;5092010;28;20140;-63
2023/01/20 11:10:26;;;;;;;5.13;1.63;;;13.30;71.90;;;;;;5110374;27;20157;-64
2023/01/20 11:13:01;;;;;;;4.75;1.70;;;13.40;72.70;;;;;;5109928;28;20149;-65
2023/01/20 11:15:29;;;;;;;7.18;2.33;;;13.30;73.00;;;;;;5109095;28;20136;-64
2023/01/20 11:18:14;;;;;;;4.90;2.67;;;13.30;73.60;;;;;;5110301;27;20090;-65
2023/01/20 11:20:57;;;;;;;6.63;3.45;;;13.20;74.70;;;;;;5110109;28;20098;-63
2023/01/20 11:23:47;;;;;;;7.00;3.15;;;13.10;76.30;;;;;;5110304;28;20445;-65
2023/01/20 11:26:33;;;;;;;5.35;3.03;;;13.00;77.10;;;;;;5113305;27;20588;-63
2023/01/20 11:29:21;;;;;;;5.47;3.00;;;12.90;77.80;;;;;;5110736;28;20075;-65
2023/01/20 11:31:51;;;;;;;4.47;2.42;;;12.80;78.10;;;;;;5108572;28;20074;-63
2023/01/20 11:34:23;;;;;;;7.15;2.15;;;12.70;78.00;;;;;;5111200;28;20071;-65
2023/01/20 11:37:11;;;;;;;3.50;2.08;;;12.80;78.10;;;;;;5108587;28;20077;-65
2023/01/20 11:39:50;;;;;;;5.50;1.75;;;12.70;77.60;;;;;;5093113;28;20206;-63
2023/01/20 11:42:23;;;;;;;5.35;1.42;;;12.70;77.70;;;;;;5108839;27;20157;-64
2023/01/20 11:44:51;;;;;;;4.55;1.63;;;12.80;78.10;;;;;;5108449;28;20496;-63
2023/01/20 11:47:31;;;;;;;2.42;1.13;;;12.70;78.40;;;;;;5108356;28;20440;-64
2023/01/20 11:50:06;;;;;;;5.78;1.48;;;12.70;78.50;;;;;;5108977;27;20137;-64
2023/01/20 11:52:38;;;;;;;2.95;1.30;;;12.70;78.70;;;;;;5109964;28;20095;-64
2023/01/20 11:55:11;;;;;;;1.85;0.90;;;12.80;78.60;;;;;;5111079;27;20092;-64
2023/01/20 11:57:43;;;;;;;3.63;1.30;;;12.80;78.60;;;;;;5108753;28;20093;-66
2023/01/20 12:00:38;;;;;;;1.85;0.80;;;12.80;78.80;;;;;;5111108;27;20136;-66
2023/01/20 12:03:10;;;;;;;1.38;0.80;;;12.90;78.90;;;;;;5102203;28;20074;-64
2023/01/20 12:06:03;;;;;;;2.55;0.98;;;12.80;78.90;;;;;;5092154;28;20468;-67
2023/01/20 12:08:48;;;;;;;2.22;1.08;;;12.90;79.10;;;;;;5109747;27;20558;-65
2023/01/20 12:12:00;;;;;;;3.08;0.85;;;12.80;79.40;;;;;;5110030;28;20069;-62
2023/01/20 12:14:44;;;;;;;2.42;0.98;;;12.90;78.80;;;;;;5079014;28;20090;-64
2023/01/20 12:17:26;;;;;;;2.20;0.98;;;12.80;78.70;;;;;;5108958;27;20128;-65
2023/01/20 12:20:15;;;;;;;3.30;1.00;;;12.90;77.50;;;;;;5108834;28;20078;-65
2023/01/20 12:22:50;;;;;;;3.70;1.10;;;12.80;76.60;;;;;;5111264;27;20515;-65
2023/01/20 12:25:51;;;;;;;4.10;1.25;;;12.80;76.10;;;;;;5109489;27;20073;-67
2023/01/20 12:28:24;;;;;;;4.53;1.38;;;12.80;76.00;;;;;;5096528;27;20105;-65
2023/01/20 12:30:59;;;;;;;6.10;1.38;;;12.80;75.60;;;;;;5109630;28;20066;-67
2023/01/20 12:33:43;;;;;;;3.63;1.35;;;12.80;75.20;;;;;;5108335;28;20214;-64
2023/01/20 12:36:26;;;;;;;4.07;1.33;;;12.80;75.20;;;;;;5110156;28;20153;-65
2023/01/20 12:39:11;;;;;;;6.18;1.30;;;12.80;74.70;;;;;;5113390;27;20086;-65
2023/01/20 12:42:04;;;;;;;3.92;1.20;;;12.80;74.40;;;;;;5111481;27;20152;-63
2023/01/20 12:44:49;;;;;;;6.32;1.65;;;12.80;73.70;;;;;;5111064;27;20072;-63
2023/01/20 12:47:40;;;;;;;8.90;1.80;;;12.90;73.60;;;;;;5107553;28;20079;-65
2023/01/20 12:50:24;;;;;;;8.15;1.27;;;12.80;73.10;;;;;;5109308;27;20086;-66
2023/01/20 12:53:23;;;;;;;5.13;1.30;;;12.80;72.90;;;;;;5111547;27;20434;-66
2023/01/20 12:56:04;;;;;;;8.02;1.75;;;12.80;72.70;;;;;;5110643;27;20070;-65
2023/01/20 12:58:55;;;;;;;7.20;1.58;;;12.70;72.60;;;;;;5109559;27;20085;-63
2023/01/20 13:01:52;;;;;;;4.60;1.40;;;12.70;72.60;;;;;;5112035;27;20530;-62
2023/01/20 13:04:36;;;;;;;7.78;1.95;;;12.70;72.50;;;;;;5111291;28;20066;-64
2023/01/20 13:07:36;;;;;;;9.48;1.60;;;12.60;72.20;;;;;;5108464;27;20085;-64
2023/01/20 13:10:33;;;;;;;5.63;1.17;;;12.60;72.40;;;;;;5109504;27;20137;-65
2023/01/20 13:13:35;;;;;;;6.35;1.58;;;12.60;72.60;;;;;;5108461;27;20064;-64
2023/01/20 13:16:31;;;;;;;11.68;1.77;;;12.50;72.70;;;;;;5108910;28;20101;-64
2023/01/20 13:19:15;;;;;;;9.40;1.75;;;12.50;72.80;;;;;;4996048;28;20497;-65
2023/01/20 13:21:41;;;;;;;7.90;1.85;;;12.50;72.80;;;;;;4998090;28;20070;-67
2023/01/20 13:24:28;;;;;;;12.90;2.00;;;12.50;73.10;;;;;;4996736;28;20160;-65
2023/01/20 13:26:59;;;;;;;7.87;2.20;;;12.40;73.20;;;;;;4999710;28;20096;-67